Latest Coastal Weather Observations for Orbost

IDV60701

Issued at 9:12 pm EST Saturday 25 June 2022 (issued every 10 minutes, with the page automatically refreshed every 10 minutes)

About coastal observations | Map of coastal stations | Coastal observations for VIC | Marine services | Other Formats
Station Details ID: 084145 Name: ORBOST Lat: -37.69 Lon: 148.47 Height: 62.65 m
Data from the previous 72 hours. | See also: Recent months at Orbost
Date/Time
EST
Wind Sea
Height
m
Swell Vis
km
Cloud Weather Temp
°C
Press
MSL
hPa
Rain since
9am
mm
Dir  Spd
kts
Gust
kts
Height
m
Period
s
Dir
25/09:00pm NNW 4 5 - - - - - - - 9.2 1020.5 0.0
25/08:30pm N 2 4 - - - - - - - 10.4 1020.4 0.0
25/08:00pm NNW 2 5 - - - - - - - 9.8 1020.5 0.0
25/07:30pm N 5 6 - - - - - - - 9.8 1020.4 0.0
25/07:00pm NNW 6 7 - - - - - - - 10.2 1020.1 0.0
25/06:30pm NNW 6 9 - - - - - - - 11.3 1020.2 0.0
25/06:00pm N 8 12 - - - - - - - 11.7 1019.7 0.0
25/05:30pm NNW 7 11 - - - - - - - 10.5 1019.5 0.0
25/05:00pm NNW 6 8 - - - - - - - 12.0 1019.3 0.0
25/04:30pm NNW 6 8 - - - - - - - 14.5 1019.2 0.0
25/04:00pm NW 7 12 - - - - - - - 15.3 1018.8 0.0
25/03:30pm NW 7 12 - - - - - - - 16.1 1018.8 0.0
25/03:00pm WNW 8 16 - - - - - - - 16.3 1018.5 0.0
25/02:30pm NW 9 14 - - - - - - - 16.6 1018.2 0.0
25/02:00pm WNW 10 13 - - - - - - - 16.6 1018.2 0.0
25/01:30pm NW 7 15 - - - - - - - 16.6 1018.2 0.0
25/01:00pm NW 10 15 - - - - - - - 16.1 1018.4 0.0
25/12:30pm NW 8 13 - - - - - - - 16.1 1018.8 0.0
25/12:00pm NW 9 15 - - - - - - - 15.2 1019.1 0.0
25/11:30am NW 7 9 - - - - - - - 14.8 1019.4 0.0
25/11:00am NW 6 9 - - - - - - - 14.4 1019.7 0.0
25/10:30am NW 6 9 - - - - - - - 13.8 1019.8 0.0
25/10:00am NNW 6 10 - - - - - - - 13.1 1019.6 0.0
25/09:30am NNW 7 11 - - - - - - - 12.1 1019.3 0.0
25/09:00am NNW 6 9 - - - - - - - 11.2 1019.2 0.4
25/08:30am NNW 4 5 - - - - - - - 8.7 1019.1 0.4
25/08:00am N 5 7 - - - - - - - 8.1 1018.9 0.4
25/07:30am N 4 5 - - - - - - - 7.8 1018.6 0.4
25/07:00am N 4 6 - - - - - - - 7.8 1018.4 0.4
25/06:30am N 5 7 - - - - - - - 8.2 1018.1 0.4
25/06:00am N 7 9 - - - - - - - 8.7 1017.9 0.4
25/05:30am N 7 8 - - - - - - - 8.4 1017.5 0.4
25/05:00am N 5 7 - - - - - - - 7.5 1017.1 0.4
25/04:30am NW 3 5 - - - - - - - 7.7 1017.0 0.4
25/04:00am NNW 4 7 - - - - - - - 9.4 1016.8 0.4
25/03:30am NNW 4 6 - - - - - - - 9.6 1016.9 0.4
25/03:00am NNW 4 7 - - - - - - - 10.3 1016.9 0.4
25/02:30am NNW 5 7 - - - - - - - 9.6 1016.9 0.4
25/02:00am NNW 5 7 - - - - - - - 9.9 1017.0 0.4
25/01:30am NNW 3 6 - - - - - - - 10.4 1016.9 0.4
25/01:00am NW 3 6 - - - - - - - 10.0 1017.1 0.4
25/12:30am NNW 3 4 - - - - - - - 9.7 1017.2 0.4
25/12:00am NNW 4 6 - - - - - - - 9.6 1017.3 0.4
 
Date/Time
EST
Wind Sea
Height
m
Swell Vis
km
Cloud Weather Temp
°C
Press
MSL
hPa
Rain since
9am
mm
Dir  Spd
kts
Gust
kts
Height
m
Period
s
Dir
24/11:30pm N 2 3 - - - - - - - 9.0 1017.4 0.4
24/11:00pm NNW 1 2 - - - - - - - 9.1 1017.5 0.4
24/10:30pm N 1 1 - - - - - - - 9.8 1017.5 0.4
24/10:00pm N 3 4 - - - - - - - 10.2 1017.3 0.4
24/09:30pm NW 2 3 - - - - - - - 11.0 1017.4 0.4
24/09:00pm NNW 2 3 - - - - - - - 10.0 1017.2 0.4
24/08:30pm N 3 3 - - - - - - - 10.6 1016.9 0.4
24/08:00pm WNW 3 4 - - - - - - - 11.2 1016.8 0.4
24/07:30pm WNW 4 5 - - - - - - - 11.9 1016.6 0.4
24/07:00pm NW 3 5 - - - - - - - 12.0 1016.2 0.4
24/06:30pm WNW 3 5 - - - - - - - 12.6 1015.7 0.4
24/06:00pm NW 2 3 - - - - - - - 12.2 1015.4 0.4
24/05:30pm NNW 3 4 - - - - - - - 12.7 1015.0 0.4
24/05:00pm NNW 2 4 - - - - - - - 13.1 1014.6 0.4
24/04:30pm WNW 4 8 - - - - - - - 13.3 1014.3 0.4
24/04:00pm SW 7 11 - - - - - - - 14.2 1014.0 0.4
24/03:30pm SW 9 16 - - - - - - - 14.6 1013.8 0.4
24/03:00pm SSW 8 11 - - - - - - - 15.7 1013.4 0.4
24/02:30pm SW 6 9 - - - - - - - 17.5 1012.9 0.4
24/02:00pm W 6 10 - - - - - - - 18.1 1012.7 0.4
24/01:30pm W 5 7 - - - - - - - 17.5 1012.7 0.4
24/01:00pm WNW 7 11 - - - - - - - 17.7 1012.7 0.4
24/12:30pm WNW 8 16 - - - - - - - 18.0 1012.7 0.4
24/12:00pm NW 8 12 - - - - - - - 17.5 1013.0 0.4
24/11:30am NW 6 10 - - - - - - - 16.1 1013.0 0.4
24/11:00am NNW 3 4 - - - - - - - 14.6 1013.2 0.4
24/10:30am NW 2 4 - - - - - - - 14.3 1013.3 0.4
24/10:00am NW 3 5 - - - - - - - 14.4 1013.4 0.4
24/09:30am WNW 5 11 - - - - - - - 14.9 1013.2 0.2
24/09:00am NW 5 9 - - - - - - - 14.9 1013.1 0.0
24/08:30am NW 6 9 - - - - - - - 15.5 1012.9 0.0
24/08:00am NNW 6 7 - - - - - - - 14.7 1012.8 0.0
24/07:30am NNW 6 12 - - - - - - - 14.1 1012.7 0.0
24/07:00am NNW 5 7 - - - - - - - 13.1 1012.5 0.0
24/06:30am NNW 6 7 - - - - - - - 14.5 1012.3 0.0
24/06:00am N 6 8 - - - - - - - 14.1 1011.8 0.0
24/05:30am N 6 8 - - - - - - - 14.0 1011.6 0.0
24/05:00am N 8 11 - - - - - - - 14.4 1011.6 0.0
24/04:30am N 11 16 - - - - - - - 14.8 1011.4 0.0
24/04:00am N 6 8 - - - - - - - 14.0 1012.3 0.0
24/03:30am N 6 9 - - - - - - - 13.7 1013.2 0.0
24/03:00am N 8 12 - - - - - - - 14.6 1013.6 0.0
24/02:30am N 9 15 - - - - - - - 14.5 1014.2 0.0
24/02:00am NNW 8 11 - - - - - - - 14.9 1014.2 0.0
24/01:30am NNW 13 21 - - - - - - - 15.2 1013.6 0.0
24/01:00am NNW 5 13 - - - - - - - 14.6 1013.9 0.0
24/12:30am NNW 4 8 - - - - - - - 14.2 1014.3 0.0
24/12:00am NNW 8 12 - - - - - - - 14.3 1014.5 0.0
 
Date/Time
EST
Wind Sea
Height
m
Swell Vis
km
Cloud Weather Temp
°C
Press
MSL
hPa
Rain since
9am
mm
Dir  Spd
kts
Gust
kts
Height
m
Period
s
Dir
23/11:30pm NNW 8 12 - - - - - - - 14.3 1015.0 0.0
23/11:00pm NNW 6 9 - - - - - - - 13.7 1015.6 0.0
23/10:30pm N 3 4 - - - - - - - 13.1 1015.8 0.0
23/10:00pm NNW 3 7 - - - - - - - 13.9 1015.9 0.0
23/09:30pm NNW 5 8 - - - - - - - 13.5 1016.0 0.0
23/09:00pm NNW 3 7 - - - - - - - 13.4 1016.3 0.0
23/08:30pm NNW 5 8 - - - - - - - 13.6 1016.6 0.0
23/08:00pm NNW 7 10 - - - - - - - 13.6 1016.7 0.0
23/07:30pm NNW 4 5 - - - - - - - 12.7 1016.8 0.0
23/07:00pm NNW 3 4 - - - - - - - 12.4 1016.7 0.0
23/06:30pm N 2 3 - - - - - - - 13.1 1016.8 0.0
23/06:00pm N 4 6 - - - - - - - 13.0 1016.7 0.0
23/05:30pm N 4 5 - - - - - - - 13.3 1017.0 0.0
23/05:00pm N 3 4 - - - - - - - 13.2 1017.1 0.0
23/04:30pm N 3 3 - - - - - - - 14.3 1017.1 0.0
23/04:00pm N 3 4 - - - - - - - 15.2 1017.1 0.0
23/03:30pm N 2 3 - - - - - - - 16.0 1017.2 0.0
23/03:00pm N 4 6 - - - - - - - 16.5 1017.3 0.0
23/02:30pm N 4 5 - - - - - - - 17.9 1017.4 0.0
23/02:00pm NNW 5 7 - - - - - - - 16.9 1017.6 0.0
23/01:30pm NNW 4 7 - - - - - - - 17.1 1018.2 0.0
23/01:00pm NNW 5 8 - - - - - - - 16.6 1018.5 0.0
23/12:30pm NNW 7 10 - - - - - - - 16.3 1019.4 0.0
23/12:00pm NNW 7 10 - - - - - - - 16.2 1020.1 0.0
23/11:30am NW 4 7 - - - - - - - 16.0 1020.7 0.0
23/11:00am NW 4 6 - - - - - - - 15.4 1021.1 0.0
23/10:30am WNW 2 5 - - - - - - - 13.3 1021.5 0.0
23/10:00am NW 3 3 - - - - - - - 12.7 1021.4 0.0
23/09:30am NW 3 6 - - - - - - - 12.0 1021.6 0.0
23/09:00am NNW 6 8 - - - - - - - 11.4 1021.8 0.0
23/08:30am NW 2 3 - - - - - - - 8.9 1022.0 0.0
23/08:00am CALM 0 0 - - - - - - - 8.1 1021.9 0.0
23/07:30am CALM 0 0 - - - - - - - 7.7 1021.5 0.0
23/07:00am CALM 0 0 - - - - - - - 7.2 1021.4 0.0
23/06:30am NNW 2 3 - - - - - - - 9.1 1021.2 0.0
23/06:00am CALM 0 0 - - - - - - - 7.6 1021.2 0.0
23/05:30am N 2 4 - - - - - - - 8.3 1021.3 0.0
23/05:00am NNW 2 3 - - - - - - - 7.6 1021.8 0.0
23/04:30am NW 1 2 - - - - - - - 7.6 1021.8 0.0
23/04:00am NNW 3 4 - - - - - - - 7.5 1021.7 0.0
23/03:30am N 4 5 - - - - - - - 7.7 1022.2 0.0
23/03:00am NW 3 5 - - - - - - - 7.7 1022.7 0.0
23/02:30am N 5 6 - - - - - - - 8.0 1022.7 0.0
23/02:00am N 5 6 - - - - - - - 8.0 1023.3 0.0
23/01:30am N 5 6 - - - - - - - 8.2 1023.2 0.0
23/01:00am NNW 2 3 - - - - - - - 7.5 1023.3 0.0
23/12:30am NNW 3 5 - - - - - - - 8.0 1023.5 0.0
23/12:00am NW 2 3 - - - - - - - 8.2 1023.6 0.0
 
Date/Time
EST
Wind Sea
Height
m
Swell Vis
km
Cloud Weather Temp
°C
Press
MSL
hPa
Rain since
9am
mm
Dir  Spd
kts
Gust
kts
Height
m
Period
s
Dir
22/11:30pm WNW 3 4 - - - - - - - 8.1 1023.7 0.0
22/11:00pm NW 3 4 - - - - - - - 9.2 1023.7 0.0
22/10:30pm NNW 4 5 - - - - - - - 9.5 1023.8 0.0
22/10:00pm NNW 4 6 - - - - - - - 11.1 1023.9 0.0
22/09:30pm N 5 6 - - - - - - - 11.5 1023.9 0.0

Other formats

Comma delimited format used in spreadsheet applications
http://www.bom.gov.au/fwo/IDV60701/IDV60701.95918.axf

JavaScript Object Notation format (JSON) in row-major order
http://www.bom.gov.au/fwo/IDV60701/IDV60701.95918.json

Data quality

Most of these data are generated automatically and are frequently updated. Quality checks on data are not normally performed. It is possible for incorrect values to appear. Refer to information at About Latest Weather Observations and please check the disclaimer before using these data.